Time;durP1;ratioP1;P1;durP2;ratioP2;P2;SDS_P1;SDS_P2;PMS_P1;PMS_P2;Temp;Humidity;BMP_temperature;BMP_pressure;BME280_temperature;BME280_humidity;BME280_pressure;Samples;Min_cycle;Max_cycle;Signal;HPM_P1;HPM_P2
2021/10/24 00:00:53;;;;;;;9.70;4.80;;;4.70;63.90;;;;;;4976557;28;20034;-83
2021/10/24 00:03:19;;;;;;;9.35;4.95;;;4.70;63.80;;;;;;4976367;28;20430;-82
2021/10/24 00:05:45;;;;;;;10.73;4.78;;;4.80;63.90;;;;;;4976447;28;20027;-82
2021/10/24 00:08:11;;;;;;;10.25;5.07;;;4.70;64.00;;;;;;4959048;28;20031;-82
2021/10/24 00:10:36;;;;;;;10.45;4.93;;;4.70;65.00;;;;;;4958894;28;20479;-83
2021/10/24 00:13:02;;;;;;;10.50;4.75;;;4.70;64.10;;;;;;4976185;28;20090;-83
2021/10/24 00:15:28;;;;;;;11.98;5.28;;;4.60;64.30;;;;;;4976469;28;20689;-83
2021/10/24 00:17:54;;;;;;;11.15;5.68;;;4.60;64.70;;;;;;4976362;28;20458;-82
2021/10/24 00:20:20;;;;;;;13.18;6.25;;;4.60;64.40;;;;;;4958984;28;20065;-81
2021/10/24 00:22:45;;;;;;;11.02;5.47;;;4.60;64.30;;;;;;4976039;28;20454;-82
2021/10/24 00:25:11;;;;;;;9.43;5.47;;;4.60;64.70;;;;;;4958498;28;20027;-82
2021/10/24 00:27:37;;;;;;;10.27;5.55;;;4.50;64.80;;;;;;4975653;28;20041;-82
2021/10/24 00:30:05;;;;;;;9.05;5.22;;;4.50;64.80;;;;;;4958382;28;20070;-82
2021/10/24 00:32:30;;;;;;;9.75;5.10;;;4.60;65.10;;;;;;4958365;28;20031;-81
2021/10/24 00:34:56;;;;;;;10.27;5.10;;;4.60;65.20;;;;;;4975622;28;20077;-81
2021/10/24 00:37:22;;;;;;;8.10;4.28;;;4.60;64.70;;;;;;4975647;28;20034;-82
2021/10/24 00:39:48;;;;;;;8.23;4.15;;;4.60;64.70;;;;;;4958360;28;20022;-81
2021/10/24 00:42:13;;;;;;;9.30;4.68;;;4.60;64.60;;;;;;4986665;28;20060;-84
2021/10/24 00:44:39;;;;;;;8.38;4.40;;;4.50;64.80;;;;;;4994980;28;20030;-82
2021/10/24 00:47:06;;;;;;;8.30;5.05;;;4.50;64.70;;;;;;4977526;28;20388;-81
2021/10/24 00:49:34;;;;;;;11.77;4.40;;;4.50;64.80;;;;;;4977762;28;20058;-81
2021/10/24 00:52:00;;;;;;;7.97;4.15;;;4.40;65.30;;;;;;4977236;28;20061;-82
2021/10/24 00:54:28;;;;;;;8.55;4.63;;;4.40;64.90;;;;;;4977470;28;20036;-84
2021/10/24 00:56:55;;;;;;;10.48;4.63;;;4.40;64.90;;;;;;4994758;28;20062;-82
2021/10/24 00:59:23;;;;;;;12.10;5.25;;;4.40;65.20;;;;;;4977339;28;20033;-82
2021/10/24 01:01:50;;;;;;;13.43;5.55;;;4.30;65.60;;;;;;4994775;28;20022;-82
2021/10/24 01:04:16;;;;;;;10.18;4.97;;;4.40;65.90;;;;;;4994751;28;20109;-83
2021/10/24 01:06:42;;;;;;;10.43;5.32;;;4.40;66.00;;;;;;4977521;28;20440;-82
2021/10/24 01:09:15;;;;;;;10.02;4.68;;;4.40;65.60;;;;;;4976912;28;20477;-82
2021/10/24 01:11:43;;;;;;;10.15;4.80;;;4.40;65.80;;;;;;4994531;28;20026;-82
2021/10/24 01:14:13;;;;;;;8.65;4.68;;;4.40;66.30;;;;;;4994712;28;20033;-83
2021/10/24 01:16:40;;;;;;;8.73;4.60;;;4.50;66.00;;;;;;4977593;28;20038;-82
2021/10/24 01:19:09;;;;;;;10.63;4.90;;;4.50;65.80;;;;;;4994602;28;20425;-82
2021/10/24 01:21:36;;;;;;;11.30;5.50;;;4.50;66.00;;;;;;4977052;28;20099;-82
2021/10/24 01:24:02;;;;;;;12.75;6.03;;;4.50;65.80;;;;;;4976905;28;20489;-82
2021/10/24 01:26:29;;;;;;;9.07;4.65;;;4.60;65.90;;;;;;4976872;28;20034;-81
2021/10/24 01:28:56;;;;;;;9.65;4.90;;;4.70;66.00;;;;;;4994378;28;20037;-82
2021/10/24 01:31:22;;;;;;;10.43;5.55;;;4.70;65.80;;;;;;4994418;28;20104;-82
2021/10/24 01:33:48;;;;;;;11.95;5.53;;;4.70;66.00;;;;;;4976837;28;20026;-82
2021/10/24 01:36:14;;;;;;;8.55;5.03;;;4.70;65.90;;;;;;4994534;28;20030;-81
2021/10/24 01:38:44;;;;;;;12.32;5.05;;;4.70;66.00;;;;;;4994265;28;20054;-82
2021/10/24 01:41:10;;;;;;;10.63;4.63;;;4.80;65.90;;;;;;4976654;28;20476;-81
2021/10/24 01:43:36;;;;;;;10.70;5.18;;;4.70;66.20;;;;;;4977143;28;20049;-80
2021/10/24 01:46:02;;;;;;;10.88;5.40;;;4.70;67.00;;;;;;4976789;28;20097;-81
2021/10/24 01:48:28;;;;;;;11.73;5.05;;;4.70;67.40;;;;;;4976626;28;20053;-81
2021/10/24 01:50:55;;;;;;;8.38;4.75;;;4.60;67.20;;;;;;4977385;28;20069;-82
2021/10/24 01:53:28;;;;;;;10.52;5.07;;;4.70;67.10;;;;;;4976748;28;20085;-82
2021/10/24 01:55:54;;;;;;;10.32;5.20;;;4.70;67.60;;;;;;4994395;28;20037;-82
2021/10/24 01:58:20;;;;;;;11.35;5.18;;;4.70;67.90;;;;;;4976528;28;20038;-82
2021/10/24 02:00:48;;;;;;;11.63;6.13;;;4.80;68.10;;;;;;4994104;28;20032;-81
2021/10/24 02:03:14;;;;;;;13.23;7.05;;;4.80;67.90;;;;;;4993987;28;20461;-83
2021/10/24 02:05:40;;;;;;;13.57;7.45;;;4.80;68.10;;;;;;4994120;28;20037;-83
2021/10/24 02:08:07;;;;;;;12.70;6.35;;;4.80;67.90;;;;;;4993825;28;20034;-83
2021/10/24 02:10:33;;;;;;;9.18;5.65;;;4.90;68.00;;;;;;4994185;28;20034;-82
2021/10/24 02:12:59;;;;;;;9.05;5.32;;;4.90;67.90;;;;;;4977417;28;20033;-82
2021/10/24 02:15:25;;;;;;;9.50;5.25;;;5.00;68.10;;;;;;4976821;28;20026;-82
2021/10/24 02:17:51;;;;;;;7.82;4.78;;;5.10;67.50;;;;;;4976907;28;20057;-81
2021/10/24 02:20:17;;;;;;;9.65;4.75;;;5.10;67.30;;;;;;4996202;28;20350;-82
2021/10/24 02:22:43;;;;;;;8.00;4.35;;;5.10;67.20;;;;;;4998868;28;20081;-82
2021/10/24 02:25:09;;;;;;;9.25;4.68;;;5.10;67.60;;;;;;4997450;28;20027;-82
2021/10/24 02:27:35;;;;;;;8.43;4.75;;;5.10;67.80;;;;;;4997665;28;20058;-82
2021/10/24 02:30:01;;;;;;;9.32;4.10;;;5.20;68.00;;;;;;4997559;28;20060;-82
2021/10/24 02:32:27;;;;;;;6.68;3.92;;;5.20;67.90;;;;;;4980167;28;20030;-82
2021/10/24 02:34:53;;;;;;;8.90;4.60;;;5.20;67.80;;;;;;4997450;28;20034;-82
2021/10/24 02:37:19;;;;;;;8.48;4.47;;;5.20;68.30;;;;;;4979944;28;20469;-82
2021/10/24 02:39:45;;;;;;;7.32;4.00;;;5.20;68.20;;;;;;4981095;28;20022;-82
2021/10/24 02:42:10;;;;;;;9.02;4.40;;;5.20;68.20;;;;;;4997061;28;20050;-83
2021/10/24 02:44:36;;;;;;;8.15;3.92;;;5.20;68.30;;;;;;4997308;28;20049;-83
2021/10/24 02:47:02;;;;;;;8.52;4.60;;;5.10;68.40;;;;;;4997047;28;20089;-82
2021/10/24 02:49:28;;;;;;;8.52;4.22;;;5.20;68.50;;;;;;4979680;28;20027;-80
2021/10/24 02:51:55;;;;;;;9.18;4.45;;;5.20;68.30;;;;;;4979596;28;20137;-82
2021/10/24 02:54:21;;;;;;;8.55;4.20;;;5.20;68.60;;;;;;4979642;28;20026;-82
2021/10/24 02:56:48;;;;;;;8.35;3.80;;;5.20;68.20;;;;;;4980097;28;20030;-82
2021/10/24 02:59:15;;;;;;;9.00;4.10;;;5.20;68.00;;;;;;4997028;28;20053;-82
2021/10/24 03:01:40;;;;;;;6.53;3.60;;;5.20;68.10;;;;;;4979636;28;20384;-82
2021/10/24 03:04:06;;;;;;;9.40;4.28;;;5.20;68.30;;;;;;4979448;28;20109;-82
2021/10/24 03:06:32;;;;;;;7.22;3.97;;;5.30;68.20;;;;;;4979480;28;20465;-82
2021/10/24 03:08:58;;;;;;;7.18;3.85;;;5.30;67.80;;;;;;4979422;28;20149;-82
2021/10/24 03:11:24;;;;;;;6.75;3.53;;;5.30;68.10;;;;;;4979602;28;20366;-82
2021/10/24 03:13:50;;;;;;;7.90;3.60;;;5.40;67.80;;;;;;4979383;28;20033;-82
2021/10/24 03:16:15;;;;;;;5.82;3.70;;;5.30;67.80;;;;;;4980145;28;20469;-82
2021/10/24 03:18:41;;;;;;;8.43;4.10;;;5.40;68.10;;;;;;4979721;28;20022;-81
2021/10/24 03:21:08;;;;;;;6.60;4.00;;;5.30;69.30;;;;;;4979192;28;20027;-81
2021/10/24 03:23:33;;;;;;;7.15;4.00;;;5.30;68.50;;;;;;4979095;28;20036;-81
2021/10/24 03:25:59;;;;;;;8.50;4.55;;;5.40;69.20;;;;;;4996383;28;20113;-82
2021/10/24 03:28:25;;;;;;;8.70;4.20;;;5.40;69.30;;;;;;4978996;28;20125;-82
2021/10/24 03:30:51;;;;;;;8.50;4.05;;;5.30;69.40;;;;;;4978813;28;20053;-82
2021/10/24 03:33:17;;;;;;;8.45;4.00;;;5.30;69.90;;;;;;4978599;28;20084;-83
2021/10/24 03:35:43;;;;;;;8.20;4.35;;;5.40;69.50;;;;;;4978863;28;20076;-82
2021/10/24 03:38:10;;;;;;;7.50;4.05;;;5.50;69.50;;;;;;4979052;28;20022;-82
2021/10/24 03:40:36;;;;;;;5.80;3.45;;;5.50;69.10;;;;;;4978703;28;20042;-81
2021/10/24 03:43:02;;;;;;;5.60;3.10;;;5.50;69.40;;;;;;4978822;28;20471;-82
2021/10/24 03:45:28;;;;;;;5.65;3.15;;;5.50;69.00;;;;;;4996128;28;20026;-82
2021/10/24 03:47:54;;;;;;;6.25;3.38;;;5.50;68.90;;;;;;4978381;28;20522;-82
2021/10/24 03:50:20;;;;;;;7.20;3.60;;;5.60;69.40;;;;;;4996110;28;20543;-81
2021/10/24 03:52:47;;;;;;;7.72;3.55;;;5.60;69.20;;;;;;4997031;28;20346;-82
2021/10/24 03:55:13;;;;;;;6.03;3.42;;;5.60;69.60;;;;;;4997289;28;20041;-83
2021/10/24 03:57:39;;;;;;;6.93;3.65;;;5.60;68.90;;;;;;4996106;28;20031;-83
2021/10/24 04:00:07;;;;;;;11.27;3.83;;;5.60;68.90;;;;;;4978364;28;20044;-82
2021/10/24 04:02:33;;;;;;;7.68;3.83;;;5.60;69.20;;;;;;4978418;28;20042;-83
2021/10/24 04:04:59;;;;;;;7.20;3.90;;;5.60;69.10;;;;;;4995800;28;20022;-83
2021/10/24 04:07:24;;;;;;;8.85;4.43;;;5.60;69.20;;;;;;4995858;28;20109;-82
2021/10/24 04:09:50;;;;;;;8.00;4.13;;;5.60;68.90;;;;;;4978822;28;20497;-83
2021/10/24 04:12:16;;;;;;;7.00;4.15;;;5.60;69.20;;;;;;4995689;28;20426;-81
2021/10/24 04:14:42;;;;;;;8.38;4.60;;;5.60;69.10;;;;;;4998288;28;20026;-82
2021/10/24 04:17:08;;;;;;;9.10;4.25;;;5.60;69.20;;;;;;4982652;28;20038;-82
2021/10/24 04:19:34;;;;;;;9.07;4.10;;;5.60;69.30;;;;;;4996053;28;20018;-83
2021/10/24 04:22:00;;;;;;;10.00;4.15;;;5.60;69.20;;;;;;4995887;28;20469;-82
2021/10/24 04:24:26;;;;;;;7.18;4.05;;;5.60;69.20;;;;;;4977987;28;20033;-82
2021/10/24 04:26:52;;;;;;;8.77;4.60;;;5.60;69.20;;;;;;4995698;28;20070;-82
2021/10/24 04:29:21;;;;;;;9.02;4.18;;;5.60;69.50;;;;;;4977881;28;20046;-82
2021/10/24 04:31:46;;;;;;;9.02;4.57;;;5.70;69.50;;;;;;4977473;28;20030;-82
2021/10/24 04:34:13;;;;;;;8.32;4.53;;;5.70;69.80;;;;;;4995177;28;20036;-82
2021/10/24 04:36:39;;;;;;;8.93;4.82;;;5.70;69.70;;;;;;4977556;28;20035;-83
2021/10/24 04:39:04;;;;;;;11.00;5.65;;;5.70;69.80;;;;;;4977656;28;20121;-82
2021/10/24 04:41:30;;;;;;;9.40;5.10;;;5.70;69.90;;;;;;4995001;28;20053;-81
2021/10/24 04:43:59;;;;;;;8.82;5.10;;;5.80;70.10;;;;;;4994507;28;20022;-80
2021/10/24 04:46:27;;;;;;;9.90;4.70;;;5.70;70.20;;;;;;4995174;28;20035;-80
2021/10/24 04:48:52;;;;;;;10.05;4.68;;;5.70;70.10;;;;;;4995036;28;20026;-80
2021/10/24 04:51:18;;;;;;;8.50;4.50;;;5.70;70.10;;;;;;4994843;28;20101;-79
2021/10/24 04:53:44;;;;;;;8.75;4.55;;;5.70;70.30;;;;;;4977629;28;20038;-80
2021/10/24 04:56:10;;;;;;;10.70;4.80;;;5.70;70.50;;;;;;4994716;28;20092;-80
2021/10/24 04:58:35;;;;;;;9.60;5.43;;;5.70;70.50;;;;;;4994610;28;20030;-81
2021/10/24 05:01:04;;;;;;;8.63;4.53;;;5.80;70.80;;;;;;4977196;28;20141;-81
2021/10/24 05:03:30;;;;;;;8.85;4.80;;;5.70;70.70;;;;;;4994882;28;20499;-81
2021/10/24 05:05:57;;;;;;;10.43;5.13;;;5.70;70.80;;;;;;4977262;28;20054;-81
2021/10/24 05:08:22;;;;;;;10.07;5.07;;;5.70;71.10;;;;;;4994936;28;20019;-81
2021/10/24 05:10:48;;;;;;;10.82;5.00;;;5.80;71.10;;;;;;4994538;28;20041;-81
2021/10/24 05:13:16;;;;;;;9.80;5.38;;;5.80;71.20;;;;;;4976900;28;20028;-81
2021/10/24 05:15:42;;;;;;;8.40;4.30;;;5.80;71.50;;;;;;4976653;28;20022;-79
2021/10/24 05:18:13;;;;;;;8.68;4.85;;;5.80;71.50;;;;;;4994812;28;20038;-77
2021/10/24 05:20:39;;;;;;;;;;;5.80;71.50;;;;;;4995799;28;20473;-80
2021/10/24 05:23:05;;;;;;;8.15;4.50;;;5.80;72.00;;;;;;4977207;28;19906;-79
2021/10/24 05:25:31;;;;;;;10.68;4.88;;;5.80;71.50;;;;;;4994701;28;20034;-80
2021/10/24 05:27:58;;;;;;;9.75;4.45;;;5.80;71.50;;;;;;4976928;28;20034;-80
2021/10/24 05:30:24;;;;;;;7.90;4.18;;;5.80;71.70;;;;;;4994454;28;20030;-80
2021/10/24 05:32:50;;;;;;;8.48;4.25;;;5.90;71.50;;;;;;4976665;28;20377;-80
2021/10/24 05:35:16;;;;;;;9.15;4.90;;;5.90;72.00;;;;;;4994286;28;20034;-80
2021/10/24 05:37:41;;;;;;;11.20;5.22;;;5.90;71.90;;;;;;4976981;28;20092;-79
2021/10/24 05:40:09;;;;;;;8.77;4.55;;;5.90;72.10;;;;;;4994130;28;20030;-80
2021/10/24 05:42:35;;;;;;;11.25;4.68;;;5.90;72.10;;;;;;4976627;28;20121;-79
2021/10/24 05:45:09;;;;;;;10.18;4.82;;;6.00;72.30;;;;;;4977008;28;20026;-80
2021/10/24 05:47:34;;;;;;;7.05;4.03;;;6.10;72.30;;;;;;4977096;28;20027;-81
2021/10/24 05:50:03;;;;;;;7.68;4.18;;;6.10;72.20;;;;;;4994245;28;20428;-80
2021/10/24 05:52:29;;;;;;;10.77;4.60;;;6.10;72.40;;;;;;4976605;28;20425;-79
2021/10/24 05:54:54;;;;;;;8.35;4.50;;;6.10;72.40;;;;;;4976860;28;20033;-80
2021/10/24 05:57:20;;;;;;;8.90;4.53;;;6.20;72.60;;;;;;4980873;28;20035;-80
2021/10/24 05:59:46;;;;;;;10.10;4.70;;;6.30;72.80;;;;;;4998470;28;20027;-81
2021/10/24 06:02:11;;;;;;;9.85;4.97;;;6.30;72.60;;;;;;4998702;28;20026;-82
2021/10/24 06:04:38;;;;;;;10.23;4.85;;;6.40;72.60;;;;;;4981174;28;20030;-81
2021/10/24 06:07:04;;;;;;;8.73;4.80;;;6.40;72.60;;;;;;4980960;28;20064;-81
2021/10/24 06:09:41;;;;;;;9.82;4.75;;;6.50;72.50;;;;;;4997931;28;20026;-83
2021/10/24 06:12:15;;;;;;;8.48;4.30;;;6.60;72.60;;;;;;4997847;28;20133;-81
2021/10/24 06:14:42;;;;;;;7.38;3.95;;;6.70;72.40;;;;;;4997929;28;20033;-80
2021/10/24 06:17:08;;;;;;;7.68;4.32;;;6.80;72.30;;;;;;4980265;28;20232;-81
2021/10/24 06:19:37;;;;;;;7.95;4.30;;;6.90;72.20;;;;;;4980263;28;20109;-80
2021/10/24 06:22:04;;;;;;;8.27;3.90;;;6.90;72.20;;;;;;4997903;28;20030;-82
2021/10/24 06:24:30;;;;;;;7.57;4.38;;;7.00;72.10;;;;;;4980050;28;20038;-80
2021/10/24 06:26:56;;;;;;;7.80;3.90;;;7.10;71.90;;;;;;4998290;28;20088;-82
2021/10/24 06:29:22;;;;;;;8.63;4.10;;;7.20;72.10;;;;;;4980102;28;20212;-81
2021/10/24 06:31:47;;;;;;;6.85;3.50;;;7.20;72.00;;;;;;4980042;28;20101;-81
2021/10/24 06:34:13;;;;;;;7.57;3.45;;;7.30;71.90;;;;;;4980020;28;20041;-80
2021/10/24 06:36:41;;;;;;;5.53;3.50;;;7.50;71.80;;;;;;4979777;28;20035;-80
2021/10/24 06:39:07;;;;;;;9.68;4.32;;;7.60;71.50;;;;;;4980402;28;20118;-81
2021/10/24 06:41:33;;;;;;;8.57;3.75;;;7.70;71.40;;;;;;4997293;28;20453;-81
2021/10/24 06:43:59;;;;;;;7.18;4.10;;;7.90;71.10;;;;;;4997500;28;20052;-80
2021/10/24 06:46:24;;;;;;;6.38;3.40;;;8.00;70.90;;;;;;4979914;28;20393;-81
2021/10/24 06:48:50;;;;;;;9.80;4.50;;;8.00;70.90;;;;;;4996967;28;20033;-81
2021/10/24 06:51:16;;;;;;;5.45;3.50;;;8.10;71.10;;;;;;4998271;28;20037;-81
2021/10/24 06:53:44;;;;;;;10.07;5.00;;;8.30;70.80;;;;;;4979885;28;20022;-82
2021/10/24 06:56:10;;;;;;;7.82;4.63;;;8.50;70.50;;;;;;4979961;28;20034;-81
2021/10/24 06:58:36;;;;;;;8.55;4.10;;;8.60;70.20;;;;;;4979878;28;20484;-81
2021/10/24 07:01:02;;;;;;;8.13;4.15;;;8.70;70.20;;;;;;4979602;28;20061;-81
2021/10/24 07:03:27;;;;;;;8.40;4.30;;;8.90;70.20;;;;;;4979197;28;20030;-80
2021/10/24 07:05:53;;;;;;;6.63;4.20;;;9.00;69.60;;;;;;4979186;28;20041;-79
2021/10/24 07:08:19;;;;;;;7.65;4.70;;;9.20;69.20;;;;;;4996085;28;20429;-80
2021/10/24 07:10:44;;;;;;;7.82;3.85;;;9.20;69.00;;;;;;4979712;28;20523;-79
2021/10/24 07:13:12;;;;;;;8.38;4.25;;;9.30;68.80;;;;;;4996409;28;20030;-82
2021/10/24 07:15:38;;;;;;;7.38;4.07;;;9.40;68.60;;;;;;4979432;28;20093;-82
2021/10/24 07:18:04;;;;;;;8.32;4.15;;;9.50;68.40;;;;;;4979008;28;20039;-85
2021/10/24 07:20:30;;;;;;;6.43;4.00;;;9.60;68.40;;;;;;4996420;28;20023;-82
2021/10/24 07:22:56;;;;;;;6.57;3.75;;;9.70;68.40;;;;;;4979313;28;20026;-83
2021/10/24 07:25:22;;;;;;;8.30;4.25;;;9.80;68.00;;;;;;4998301;28;20361;-82
2021/10/24 07:27:48;;;;;;;6.80;3.60;;;9.90;67.50;;;;;;4979535;28;20038;-83
2021/10/24 07:30:14;;;;;;;9.02;4.50;;;10.00;67.40;;;;;;4996774;28;20033;-82
2021/10/24 07:32:44;;;;;;;9.23;4.20;;;10.00;66.80;;;;;;4996673;28;20060;-83
2021/10/24 07:35:11;;;;;;;6.40;3.85;;;10.00;67.50;;;;;;4996546;28;20069;-83
2021/10/24 07:37:38;;;;;;;8.13;4.32;;;10.10;66.80;;;;;;4979134;28;20041;-82
2021/10/24 07:40:08;;;;;;;7.55;4.00;;;10.10;66.60;;;;;;4978781;28;20492;-82
2021/10/24 07:42:33;;;;;;;7.95;3.90;;;10.10;66.50;;;;;;4964912;28;20050;-83
2021/10/24 07:44:59;;;;;;;6.57;3.80;;;10.00;66.30;;;;;;4976657;28;20121;-81
2021/10/24 07:47:30;;;;;;;10.05;4.35;;;10.00;66.30;;;;;;4959107;28;20027;-84
2021/10/24 07:49:57;;;;;;;8.63;4.05;;;10.00;66.30;;;;;;4976647;28;20493;-83
2021/10/24 07:52:23;;;;;;;9.38;4.40;;;9.90;66.20;;;;;;4959264;28;20085;-83
2021/10/24 07:54:48;;;;;;;9.35;5.10;;;9.90;66.10;;;;;;4959087;28;20035;-84
2021/10/24 07:57:14;;;;;;;8.15;4.50;;;9.80;66.20;;;;;;4976328;28;20035;-84
2021/10/24 07:59:40;;;;;;;6.50;4.10;;;9.70;66.30;;;;;;4958814;28;20474;-83
2021/10/24 08:02:07;;;;;;;8.13;4.22;;;9.70;66.50;;;;;;4976104;28;20034;-83
2021/10/24 08:04:33;;;;;;;7.20;4.00;;;9.70;66.50;;;;;;4958956;28;20030;-83
2021/10/24 08:07:01;;;;;;;17.02;4.22;;;9.60;66.60;;;;;;4976254;28;20027;-80
2021/10/24 08:09:26;;;;;;;7.32;3.90;;;9.60;66.70;;;;;;4976356;28;20055;-80
2021/10/24 08:11:52;;;;;;;7.15;3.97;;;9.70;66.70;;;;;;4976271;28;20065;-81
2021/10/24 08:14:18;;;;;;;9.15;4.70;;;9.70;66.60;;;;;;4958779;28;20030;-81
2021/10/24 08:16:44;;;;;;;8.25;4.50;;;9.60;66.80;;;;;;4975665;28;20494;-81
2021/10/24 08:19:09;;;;;;;8.88;4.68;;;9.60;66.80;;;;;;4975088;28;20031;-81
2021/10/24 08:21:36;;;;;;;8.15;4.78;;;9.60;66.80;;;;;;4975823;28;20035;-82
2021/10/24 08:24:02;;;;;;;7.95;4.50;;;9.50;66.80;;;;;;4976064;28;20118;-82
2021/10/24 08:26:30;;;;;;;8.80;4.50;;;9.50;67.00;;;;;;4976061;28;20044;-82
2021/10/24 08:28:57;;;;;;;9.48;4.70;;;9.50;67.00;;;;;;4975981;28;20031;-82
2021/10/24 08:31:26;;;;;;;11.88;4.57;;;9.50;67.30;;;;;;4959043;28;20035;-82
2021/10/24 08:33:53;;;;;;;7.93;3.67;;;9.50;67.30;;;;;;4959047;28;20030;-81
2021/10/24 08:36:20;;;;;;;9.10;4.60;;;9.50;67.20;;;;;;4958349;28;20034;-82
2021/10/24 08:38:46;;;;;;;9.45;5.05;;;9.60;67.20;;;;;;4975868;28;20025;-82
2021/10/24 08:41:13;;;;;;;9.13;5.07;;;9.60;67.00;;;;;;4960898;28;20137;-82
2021/10/24 08:43:40;;;;;;;6.97;4.03;;;9.60;67.10;;;;;;4995116;28;20036;-83
2021/10/24 08:46:06;;;;;;;7.57;4.20;;;9.70;67.20;;;;;;4995118;28;20023;-83
2021/10/24 08:48:34;;;;;;;7.63;4.47;;;9.70;67.20;;;;;;4995056;28;20068;-82
2021/10/24 08:51:01;;;;;;;8.57;4.95;;;9.80;67.10;;;;;;4977431;28;20465;-82
2021/10/24 08:53:28;;;;;;;8.98;5.07;;;9.90;67.00;;;;;;4977433;28;20027;-81
2021/10/24 08:55:55;;;;;;;11.27;4.72;;;10.00;66.70;;;;;;4994532;28;20030;-82
2021/10/24 08:58:21;;;;;;;9.65;4.80;;;10.00;66.40;;;;;;4977427;28;20542;-83
2021/10/24 09:00:50;;;;;;;9.27;5.20;;;10.10;66.30;;;;;;4977530;28;20133;-83
2021/10/24 09:03:16;;;;;;;8.95;4.43;;;10.00;66.10;;;;;;4994846;28;20036;-82
2021/10/24 09:05:45;;;;;;;9.80;4.90;;;10.00;66.10;;;;;;4995320;28;20030;-82
2021/10/24 09:08:15;;;;;;;8.75;4.65;;;10.10;66.30;;;;;;4994575;28;20034;-82
2021/10/24 09:11:02;;;;;;;8.07;4.43;;;10.10;66.30;;;;;;4994645;28;20403;-81
2021/10/24 09:13:33;;;;;;;8.13;4.72;;;10.10;66.20;;;;;;4994670;28;20026;-82
2021/10/24 09:16:02;;;;;;;9.35;5.10;;;10.10;66.00;;;;;;4977043;28;20022;-82
2021/10/24 09:18:43;;;;;;;7.00;4.57;;;10.10;66.00;;;;;;4994156;28;20097;-82
2021/10/24 09:21:15;;;;;;;7.43;4.20;;;10.10;65.90;;;;;;4977021;28;20026;-81
2021/10/24 09:23:52;;;;;;;8.90;4.47;;;10.10;66.00;;;;;;4977006;28;20030;-81
2021/10/24 09:26:22;;;;;;;7.95;4.32;;;10.20;66.00;;;;;;4977782;28;20369;-82
2021/10/24 09:29:12;;;;;;;7.68;4.60;;;10.20;66.00;;;;;;4977038;28;20384;-82
2021/10/24 09:32:00;;;;;;;11.82;5.20;;;10.30;66.00;;;;;;4994572;28;20480;-83
2021/10/24 09:34:27;;;;;;;9.68;5.00;;;10.30;65.90;;;;;;4995209;28;20034;-82
2021/10/24 09:37:01;;;;;;;9.13;4.38;;;10.30;66.30;;;;;;4977390;28;20039;-81
2021/10/24 09:39:29;;;;;;;8.27;5.22;;;10.40;65.70;;;;;;4995642;28;20130;-81
2021/10/24 09:42:23;;;;;;;7.07;4.70;;;10.40;65.50;;;;;;4977200;28;20046;-80
2021/10/24 09:45:13;;;;;;;8.73;4.15;;;10.40;65.00;;;;;;4994761;28;20026;-81
2021/10/24 09:47:41;;;;;;;6.00;3.90;;;10.40;65.60;;;;;;4976973;28;20022;-81
2021/10/24 09:50:28;;;;;;;6.55;3.75;;;10.40;65.20;;;;;;4994118;28;20033;-81
2021/10/24 09:53:07;;;;;;;6.32;3.80;;;10.40;65.10;;;;;;4994372;28;20473;-80
2021/10/24 09:55:33;;;;;;;6.22;4.07;;;10.50;64.90;;;;;;4977106;28;20037;-82
2021/10/24 09:58:01;;;;;;;5.75;3.70;;;10.50;64.60;;;;;;4976657;28;20400;-82
2021/10/24 10:00:27;;;;;;;6.43;4.32;;;10.50;64.50;;;;;;4976911;28;20034;-82
2021/10/24 10:03:00;;;;;;;7.13;4.57;;;10.40;64.50;;;;;;4976719;28;20037;-82
2021/10/24 10:05:27;;;;;;;7.40;4.32;;;10.40;64.40;;;;;;4976662;28;20034;-82
2021/10/24 10:07:53;;;;;;;6.50;4.13;;;10.40;64.40;;;;;;4976446;28;20034;-82
2021/10/24 10:10:22;;;;;;;7.80;4.43;;;10.40;64.50;;;;;;4976593;28;20041;-81
2021/10/24 10:12:49;;;;;;;7.00;4.22;;;10.40;64.50;;;;;;4977059;28;20029;-81
2021/10/24 10:15:16;;;;;;;5.97;3.90;;;10.30;64.40;;;;;;4978267;28;20022;-81
2021/10/24 10:17:42;;;;;;;7.72;4.18;;;10.30;64.30;;;;;;4995950;28;20039;-82
2021/10/24 10:20:25;;;;;;;6.60;3.90;;;10.30;64.30;;;;;;4976437;28;20489;-82
2021/10/24 10:23:14;;;;;;;8.98;4.10;;;10.20;64.50;;;;;;4994769;28;20023;-82
2021/10/24 10:25:42;;;;;;;9.27;4.53;;;10.20;64.70;;;;;;4977236;28;20109;-83
2021/10/24 10:28:11;;;;;;;8.20;4.25;;;10.10;64.40;;;;;;4994086;28;20034;-82
2021/10/24 10:30:39;;;;;;;6.60;4.25;;;10.00;64.60;;;;;;4976472;28;20029;-82
2021/10/24 10:33:29;;;;;;;6.90;3.42;;;9.80;65.70;;;;;;4976434;28;20066;-82
2021/10/24 10:35:56;;;;;;;5.13;2.88;;;9.70;65.10;;;;;;4993759;28;20026;-83
2021/10/24 10:38:48;;;;;;;4.93;2.70;;;9.50;65.30;;;;;;4993551;28;20117;-82
2021/10/24 10:41:34;;;;;;;3.53;2.33;;;9.30;66.60;;;;;;4971718;28;20042;-83
2021/10/24 10:44:07;;;;;;;3.42;2.15;;;9.20;66.40;;;;;;4981268;28;20077;-82
2021/10/24 10:46:32;;;;;;;3.95;2.35;;;9.20;66.50;;;;;;4982094;28;20034;-82
2021/10/24 10:49:24;;;;;;;4.18;2.20;;;9.20;66.70;;;;;;4999400;28;20355;-82
2021/10/24 10:51:50;;;;;;;3.42;2.22;;;9.20;67.00;;;;;;4987704;28;20045;-81
2021/10/24 10:54:17;;;;;;;5.95;2.50;;;9.20;66.90;;;;;;4998408;28;20377;-83
2021/10/24 10:56:54;;;;;;;6.07;2.85;;;9.30;67.30;;;;;;4997063;28;20045;-83
2021/10/24 10:59:31;;;;;;;4.65;2.40;;;9.40;67.50;;;;;;4997226;28;20485;-81
2021/10/24 11:02:20;;;;;;;3.72;2.35;;;9.60;67.20;;;;;;4996819;28;20030;-85
2021/10/24 11:04:48;;;;;;;25.35;15.05;;;9.70;67.40;;;;;;4958203;28;20205;-82
2021/10/24 11:07:33;;;;;;;17.77;11.27;;;9.80;66.70;;;;;;4979874;28;20034;-81
2021/10/24 11:09:59;;;;;;;11.90;6.80;;;10.00;65.80;;;;;;4961610;28;20050;-82
2021/10/24 11:12:39;;;;;;;9.27;4.90;;;10.10;65.60;;;;;;4976955;28;20472;-88
2021/10/24 11:15:10;;;;;;;6.27;3.80;;;10.20;65.20;;;;;;4972697;28;20042;-87
2021/10/24 11:18:04;;;;;;;5.53;3.00;;;10.30;65.20;;;;;;4997635;28;20076;-80
2021/10/24 11:20:40;;;;;;;4.05;2.72;;;10.50;63.90;;;;;;4973524;28;20034;-83
2021/10/24 11:23:17;;;;;;;4.70;2.75;;;10.70;64.30;;;;;;4979658;28;20380;-87
2021/10/24 11:25:43;;;;;;;3.63;2.28;;;10.90;63.80;;;;;;4980923;28;20555;-84
2021/10/24 11:28:21;;;;;;;135.63;85.80;;;11.20;64.20;;;;;;4980242;28;20052;-84
2021/10/24 11:31:17;;;;;;;44.50;29.27;;;11.40;62.90;;;;;;4998632;28;20463;-81
2021/10/24 11:33:53;;;;;;;22.40;13.85;;;11.50;62.20;;;;;;4975999;28;20081;-83
2021/10/24 11:36:22;;;;;;;13.77;8.10;;;11.40;62.00;;;;;;4976690;28;20053;-83
2021/10/24 11:38:48;;;;;;;8.23;5.00;;;11.10;62.30;;;;;;4976411;28;20026;-83
2021/10/24 11:41:27;;;;;;;6.75;3.90;;;10.90;62.40;;;;;;4994764;28;20055;-83
2021/10/24 11:44:10;;;;;;;5.20;3.17;;;10.70;62.60;;;;;;4976422;28;20030;-85
2021/10/24 11:46:39;;;;;;;3.22;2.22;;;10.50;62.70;;;;;;4994137;28;20050;-84
2021/10/24 11:49:06;;;;;;;3.15;2.05;;;10.40;62.90;;;;;;4978484;28;20065;-88
2021/10/24 11:51:55;;;;;;;2.85;1.90;;;10.20;62.90;;;;;;4980689;28;20650;-83
2021/10/24 11:54:24;;;;;;;3.30;1.85;;;10.10;62.20;;;;;;4972822;28;20141;-88
2021/10/24 11:57:29;;;;;;;2.88;1.83;;;10.00;62.60;;;;;;4978344;28;20043;-84
2021/10/24 12:00:17;;;;;;;2.30;1.60;;;9.90;62.50;;;;;;4977264;28;20033;-84
2021/10/24 12:03:02;;;;;;;2.08;1.70;;;9.90;62.60;;;;;;4994424;28;20081;-83
2021/10/24 12:05:31;;;;;;;3.58;1.67;;;9.90;62.00;;;;;;4976579;28;20535;-84
2021/10/24 12:07:58;;;;;;;2.80;1.75;;;10.00;62.10;;;;;;4976301;28;20046;-82
2021/10/24 12:10:59;;;;;;;3.45;1.95;;;10.00;61.90;;;;;;4993498;28;20439;-81
2021/10/24 12:13:30;;;;;;;3.47;2.00;;;10.00;61.00;;;;;;4879688;29;20032;-81
2021/10/24 12:15:55;;;;;;;2.38;1.58;;;10.00;61.60;;;;;;4959379;28;20033;-81
2021/10/24 12:18:27;;;;;;;2.83;1.67;;;10.00;61.70;;;;;;4973452;28;20059;-81
2021/10/24 12:21:01;;;;;;;3.67;1.92;;;10.00;61.80;;;;;;4961704;28;20026;-82
2021/10/24 12:23:30;;;;;;;4.25;2.22;;;10.10;61.50;;;;;;4981990;28;20026;-84
2021/10/24 12:26:04;;;;;;;3.50;1.88;;;10.10;61.50;;;;;;4964327;28;20468;-81
2021/10/24 12:28:43;;;;;;;2.92;1.95;;;10.20;61.50;;;;;;4980890;28;20052;-89
2021/10/24 12:31:13;;;;;;;3.13;1.90;;;10.30;61.40;;;;;;4966464;28;20038;-82
2021/10/24 12:33:41;;;;;;;3.70;2.30;;;10.40;61.50;;;;;;4968324;28;20496;-83
2021/10/24 12:36:10;;;;;;;4.72;2.38;;;10.50;61.30;;;;;;4982699;28;20109;-86
2021/10/24 12:38:52;;;;;;;4.40;2.55;;;10.60;61.70;;;;;;4984374;28;20043;-86
2021/10/24 12:44:41;;;;;;;5.30;2.40;;;10.60;60.60;;;;;;4971833;28;20035;-82
2021/10/24 12:47:12;;;;;;;3.58;2.20;;;10.50;61.20;;;;;;4975103;28;20030;-84
2021/10/24 12:49:37;;;;;;;3.42;2.35;;;10.40;61.60;;;;;;4958271;28;20030;-83
2021/10/24 12:52:16;;;;;;;3.40;1.90;;;10.20;61.60;;;;;;4959160;28;20046;-83
2021/10/24 12:54:57;;;;;;;3.72;2.10;;;10.10;62.20;;;;;;4957649;28;20069;-85
2021/10/24 12:57:23;;;;;;;3.08;1.85;;;10.00;62.30;;;;;;4957226;28;20039;-84
2021/10/24 12:59:50;;;;;;;3.17;1.98;;;9.90;62.70;;;;;;4974941;28;20027;-84
2021/10/24 13:02:16;;;;;;;3.45;2.05;;;9.80;63.20;;;;;;4956992;28;20036;-86
2021/10/24 13:04:43;;;;;;;4.47;2.78;;;9.70;63.40;;;;;;4973438;28;20081;-87